Time;durP1;ratioP1;P1;durP2;ratioP2;P2;SDS_P1;SDS_P2;PMS_P1;PMS_P2;Temp;Humidity;BMP_temperature;BMP_pressure;BME280_temperature;BME280_humidity;BME280_pressure;Samples;Min_cycle;Max_cycle;Signal;HPM_P1;HPM_P2
2023/03/23 00:02:12;;;;;;;6.45;5.05;;;12.90;99.90;;;;;;5054610;28;20024;-62
2023/03/23 00:04:37;;;;;;;7.47;4.95;;;12.80;99.90;;;;;;5053852;28;20044;-62
2023/03/23 00:07:03;;;;;;;7.78;4.53;;;13.00;99.90;;;;;;5054286;28;20029;-62
2023/03/23 00:09:29;;;;;;;6.93;4.72;;;12.90;99.90;;;;;;5054095;28;20440;-63
2023/03/23 00:11:56;;;;;;;6.47;5.32;;;12.90;99.90;;;;;;5053901;28;20029;-62
2023/03/23 00:14:24;;;;;;;5.97;4.78;;;12.80;99.90;;;;;;5053941;28;20410;-63
2023/03/23 00:16:50;;;;;;;6.60;4.97;;;12.80;99.90;;;;;;5054403;28;20033;-62
2023/03/23 00:19:19;;;;;;;7.10;4.93;;;12.90;99.90;;;;;;5053768;28;20432;-62
2023/03/23 00:21:45;;;;;;;7.32;4.82;;;12.90;99.90;;;;;;5053905;28;20485;-62
2023/03/23 00:24:15;;;;;;;6.55;4.95;;;12.70;99.90;;;;;;5053983;28;20032;-62
2023/03/23 00:26:43;;;;;;;5.75;4.80;;;13.10;99.90;;;;;;5053957;28;20080;-62
2023/03/23 00:29:21;;;;;;;8.57;5.45;;;13.20;99.90;;;;;;5053910;28;20025;-62
2023/03/23 00:31:48;;;;;;;5.43;4.93;;;13.10;99.90;;;;;;5053465;28;20108;-62
2023/03/23 00:34:19;;;;;;;6.40;5.05;;;13.20;99.90;;;;;;5053498;28;20032;-62
2023/03/23 00:36:56;;;;;;;7.97;5.20;;;12.90;99.90;;;;;;5053888;28;20552;-62
2023/03/23 00:39:25;;;;;;;7.63;5.20;;;13.10;99.90;;;;;;5053578;28;20090;-62
2023/03/23 00:41:51;;;;;;;5.40;4.90;;;13.10;99.90;;;;;;5053596;28;20158;-62
2023/03/23 00:44:17;;;;;;;5.95;5.35;;;13.40;99.90;;;;;;5053348;28;20604;-62
2023/03/23 00:46:48;;;;;;;7.03;5.07;;;13.30;99.90;;;;;;5053105;28;20025;-62
2023/03/23 00:49:17;;;;;;;8.65;5.25;;;13.20;99.90;;;;;;5053178;28;20059;-62
2023/03/23 00:51:43;;;;;;;5.70;5.10;;;13.00;99.90;;;;;;5053387;28;20021;-62
2023/03/23 00:54:10;;;;;;;6.38;4.93;;;13.00;99.90;;;;;;5053291;28;20108;-62
2023/03/23 00:56:36;;;;;;;7.18;5.45;;;12.90;99.90;;;;;;5053726;28;20025;-62
2023/03/23 00:59:03;;;;;;;5.80;5.15;;;13.00;99.90;;;;;;5053203;28;20032;-62
2023/03/23 01:01:29;;;;;;;7.10;5.30;;;13.10;99.90;;;;;;5052906;28;20380;-62
2023/03/23 01:04:00;;;;;;;7.20;5.28;;;13.00;99.90;;;;;;5052817;28;20071;-62
2023/03/23 01:06:28;;;;;;;5.70;4.90;;;12.80;99.90;;;;;;5053114;28;20078;-62
2023/03/23 01:08:54;;;;;;;6.85;5.10;;;13.20;99.90;;;;;;5053007;28;20090;-62
2023/03/23 01:11:20;;;;;;;7.13;5.50;;;13.00;99.90;;;;;;5053251;28;20040;-62
2023/03/23 01:13:46;;;;;;;6.03;5.45;;;13.00;99.90;;;;;;5052735;28;20051;-62
2023/03/23 01:16:12;;;;;;;6.43;5.80;;;12.90;99.90;;;;;;5052733;28;20108;-62
2023/03/23 01:18:39;;;;;;;9.75;5.55;;;12.80;99.90;;;;;;5052770;28;20036;-62
2023/03/23 01:21:10;;;;;;;7.97;6.18;;;12.60;99.90;;;;;;5053212;28;20025;-62
2023/03/23 01:23:37;;;;;;;6.60;5.93;;;12.80;99.90;;;;;;5052602;28;20037;-62
2023/03/23 01:26:08;;;;;;;7.80;5.85;;;12.80;99.90;;;;;;5052730;28;20040;-62
2023/03/23 01:28:35;;;;;;;7.90;6.30;;;12.70;99.90;;;;;;5052979;28;20048;-62
2023/03/23 01:31:07;;;;;;;6.45;5.85;;;12.80;99.90;;;;;;5052329;28;20104;-62
2023/03/23 01:33:33;;;;;;;6.65;5.50;;;12.70;99.90;;;;;;5052988;28;20028;-62
2023/03/23 01:36:07;;;;;;;6.38;5.47;;;12.70;99.90;;;;;;5052506;28;20393;-62
2023/03/23 01:38:33;;;;;;;;;;;12.70;99.90;;;;;;5053007;28;20017;-62
2023/03/23 01:40:59;;;;;;;7.55;5.60;;;12.70;99.90;;;;;;5052571;28;19904;-62
2023/03/23 01:43:25;;;;;;;6.25;5.22;;;12.50;99.90;;;;;;5052483;28;20415;-62
2023/03/23 01:45:51;;;;;;;5.88;5.18;;;12.60;99.90;;;;;;5051661;28;20132;-61
2023/03/23 01:48:37;;;;;;;7.78;5.47;;;12.30;99.90;;;;;;5052181;28;20067;-62
2023/03/23 01:51:15;;;;;;;6.82;5.43;;;12.60;99.90;;;;;;5052303;28;20397;-62
2023/03/23 01:53:58;;;;;;;6.38;5.65;;;12.40;99.90;;;;;;5052164;28;20032;-62
2023/03/23 01:56:29;;;;;;;7.18;5.60;;;12.40;99.90;;;;;;5052299;28;20029;-62
2023/03/23 01:58:56;;;;;;;6.30;5.30;;;12.40;99.90;;;;;;5051865;28;20037;-62
2023/03/23 02:01:24;;;;;;;6.40;5.80;;;12.50;99.90;;;;;;5052250;28;20490;-62
2023/03/23 02:03:54;;;;;;;6.55;5.63;;;12.30;99.90;;;;;;5052384;28;20500;-62
2023/03/23 02:06:19;;;;;;;6.47;5.68;;;12.50;99.90;;;;;;5051735;28;20486;-62
2023/03/23 02:08:49;;;;;;;5.97;5.28;;;12.40;99.90;;;;;;5052407;28;20042;-62
2023/03/23 02:11:17;;;;;;;7.07;5.60;;;12.20;99.90;;;;;;5052179;28;20016;-62
2023/03/23 02:13:44;;;;;;;7.53;4.95;;;12.30;99.90;;;;;;5051395;28;20106;-62
2023/03/23 02:16:28;;;;;;;6.97;5.15;;;12.20;99.90;;;;;;5052333;28;20021;-62
2023/03/23 02:19:32;;;;;;;6.85;5.28;;;12.20;99.90;;;;;;5052156;28;20389;-62
2023/03/23 02:22:26;;;;;;;7.15;5.57;;;12.20;99.90;;;;;;5051998;28;20025;-62
2023/03/23 02:25:11;;;;;;;7.53;6.20;;;12.30;99.90;;;;;;5051827;28;20033;-62
2023/03/23 02:27:54;;;;;;;8.13;6.70;;;12.10;99.90;;;;;;5051845;28;20032;-62
2023/03/23 02:30:29;;;;;;;8.43;7.57;;;12.00;99.90;;;;;;5051497;28;20029;-62
2023/03/23 02:33:18;;;;;;;7.82;7.03;;;12.00;99.90;;;;;;5051354;28;20050;-62
2023/03/23 02:35:54;;;;;;;7.30;6.35;;;12.00;99.90;;;;;;5051277;28;20040;-62
2023/03/23 02:38:50;;;;;;;7.70;6.45;;;12.10;99.90;;;;;;5050991;28;20026;-61
2023/03/23 02:41:21;;;;;;;7.53;6.65;;;12.00;99.90;;;;;;5048156;28;20040;-62
2023/03/23 02:43:49;;;;;;;8.20;7.07;;;11.90;99.90;;;;;;5051334;28;20037;-62
2023/03/23 02:46:16;;;;;;;7.45;5.88;;;12.00;99.90;;;;;;5051580;28;20107;-62
2023/03/23 02:48:45;;;;;;;8.48;6.20;;;12.00;99.90;;;;;;5051983;28;20032;-62
2023/03/23 02:51:11;;;;;;;6.75;6.05;;;12.00;99.90;;;;;;5051774;28;20103;-62
2023/03/23 02:53:41;;;;;;;7.78;6.05;;;12.10;99.90;;;;;;5051522;28;20087;-62
2023/03/23 02:56:10;;;;;;;7.25;6.10;;;11.90;99.90;;;;;;5051593;28;20032;-61
2023/03/23 02:58:36;;;;;;;7.20;6.50;;;12.00;99.90;;;;;;5053815;28;20021;-62
2023/03/23 03:01:25;;;;;;;8.23;6.50;;;11.80;99.90;;;;;;5054170;28;20033;-62
2023/03/23 03:03:57;;;;;;;10.15;6.43;;;12.00;99.90;;;;;;5055596;28;20041;-62
2023/03/23 03:06:48;;;;;;;7.35;6.40;;;12.00;99.90;;;;;;5055800;28;20035;-61
2023/03/23 03:09:35;;;;;;;8.00;6.82;;;11.90;99.90;;;;;;5055216;28;20492;-62
2023/03/23 03:12:10;;;;;;;7.82;6.65;;;11.90;99.90;;;;;;5054894;28;20083;-61
2023/03/23 03:14:51;;;;;;;8.15;6.97;;;12.00;99.90;;;;;;5055451;28;20037;-62
2023/03/23 03:17:29;;;;;;;6.88;6.00;;;12.00;99.90;;;;;;5054978;28;20441;-62
2023/03/23 03:20:21;;;;;;;7.22;6.00;;;11.90;99.90;;;;;;5055456;28;20441;-62
2023/03/23 03:22:47;;;;;;;6.93;6.00;;;11.90;99.90;;;;;;5054853;28;20112;-62
2023/03/23 03:25:18;;;;;;;8.27;6.60;;;12.00;99.90;;;;;;5055056;28;20108;-62
2023/03/23 03:27:45;;;;;;;7.97;6.50;;;11.90;99.90;;;;;;5054676;28;20404;-61
2023/03/23 03:30:16;;;;;;;6.78;5.95;;;11.90;99.90;;;;;;5054871;28;20033;-62
2023/03/23 03:32:48;;;;;;;9.07;6.60;;;12.00;99.90;;;;;;5054882;28;20052;-62
2023/03/23 03:35:15;;;;;;;8.90;7.63;;;12.00;99.90;;;;;;5055321;28;20382;-61
2023/03/23 03:37:42;;;;;;;11.23;8.30;;;12.10;99.90;;;;;;5054775;28;20393;-62
2023/03/23 03:40:11;;;;;;;11.82;10.35;;;12.00;99.90;;;;;;5054754;28;20032;-61
2023/03/23 03:42:41;;;;;;;9.52;8.57;;;12.00;99.90;;;;;;5054552;28;20032;-62
2023/03/23 03:45:13;;;;;;;9.65;7.90;;;11.90;99.90;;;;;;5055023;28;20044;-62
2023/03/23 03:47:39;;;;;;;8.35;7.15;;;12.00;99.90;;;;;;5054637;28;20406;-62
2023/03/23 03:50:05;;;;;;;9.27;7.30;;;12.10;99.90;;;;;;5054295;28;20033;-62
2023/03/23 03:52:31;;;;;;;7.85;6.80;;;11.90;99.90;;;;;;5054622;28;20029;-61
2023/03/23 03:54:57;;;;;;;7.90;7.10;;;11.90;99.90;;;;;;5054221;28;20079;-62
2023/03/23 03:57:23;;;;;;;7.60;6.80;;;11.90;99.90;;;;;;5054550;28;20033;-62
2023/03/23 03:59:50;;;;;;;8.15;7.15;;;11.80;99.90;;;;;;5054374;28;20358;-62
2023/03/23 04:02:19;;;;;;;8.27;7.00;;;11.80;99.90;;;;;;5054221;28;20029;-62
2023/03/23 04:04:47;;;;;;;9.48;8.02;;;11.60;99.90;;;;;;5054616;28;20339;-62
2023/03/23 04:07:16;;;;;;;8.88;7.25;;;11.60;99.90;;;;;;5054286;28;20343;-62
2023/03/23 04:09:46;;;;;;;7.43;6.72;;;11.50;99.90;;;;;;5053427;28;20036;-62
2023/03/23 04:12:13;;;;;;;8.57;6.72;;;11.60;99.90;;;;;;5053858;28;20501;-62
2023/03/23 04:14:39;;;;;;;9.00;7.32;;;11.60;99.90;;;;;;5054120;28;20112;-62
2023/03/23 04:17:06;;;;;;;8.73;7.82;;;11.50;99.90;;;;;;5053998;28;20117;-62
2023/03/23 04:19:32;;;;;;;9.18;7.05;;;11.50;99.90;;;;;;5054253;28;20074;-62
2023/03/23 04:21:59;;;;;;;7.28;6.60;;;11.50;99.90;;;;;;5054126;28;20378;-62
2023/03/23 04:24:28;;;;;;;7.60;6.90;;;11.50;99.90;;;;;;5053527;28;20067;-62
2023/03/23 04:26:54;;;;;;;9.30;7.32;;;11.40;99.90;;;;;;5053585;28;20508;-62
2023/03/23 04:29:20;;;;;;;8.00;7.20;;;11.40;99.90;;;;;;5053850;28;20063;-62
2023/03/23 04:31:46;;;;;;;8.35;7.55;;;11.40;99.90;;;;;;5053748;28;20442;-62
2023/03/23 04:34:14;;;;;;;7.75;7.00;;;11.40;99.90;;;;;;5053711;28;20021;-62
2023/03/23 04:36:40;;;;;;;7.53;6.82;;;11.40;99.90;;;;;;5054036;28;20032;-62
2023/03/23 04:39:09;;;;;;;8.05;7.20;;;11.40;99.90;;;;;;5053510;28;20033;-62
2023/03/23 04:41:39;;;;;;;16.20;13.32;;;11.40;99.90;;;;;;5053441;28;20056;-62
2023/03/23 04:44:06;;;;;;;22.13;19.80;;;11.20;99.90;;;;;;5053625;28;20029;-62
2023/03/23 04:46:32;;;;;;;20.33;18.23;;;11.30;99.90;;;;;;5053808;28;20046;-62
2023/03/23 04:48:59;;;;;;;17.85;15.95;;;11.30;99.90;;;;;;5053441;28;20390;-62
2023/03/23 04:51:31;;;;;;;16.40;12.38;;;11.30;99.90;;;;;;5053447;28;20049;-62
2023/03/23 04:53:56;;;;;;;16.15;13.18;;;11.40;99.90;;;;;;5053128;28;20024;-62
2023/03/23 04:56:22;;;;;;;14.40;12.90;;;11.40;99.90;;;;;;5052053;28;20036;-62
2023/03/23 04:58:48;;;;;;;13.00;11.68;;;11.40;99.90;;;;;;5051968;28;20035;-62
2023/03/23 05:01:14;;;;;;;16.77;15.05;;;11.40;99.90;;;;;;5053329;28;20127;-62
2023/03/23 05:03:43;;;;;;;17.08;15.32;;;11.40;99.90;;;;;;5053028;28;20405;-62
2023/03/23 05:06:09;;;;;;;25.25;22.52;;;11.30;99.90;;;;;;5053030;28;20033;-62
2023/03/23 05:08:38;;;;;;;28.45;25.42;;;11.30;99.90;;;;;;5052776;28;20040;-62
2023/03/23 05:11:05;;;;;;;25.02;21.88;;;11.30;99.90;;;;;;5052991;28;20101;-62
2023/03/23 05:13:32;;;;;;;20.77;18.70;;;11.20;99.90;;;;;;5052718;28;20056;-62
2023/03/23 05:15:58;;;;;;;22.90;19.52;;;11.20;99.90;;;;;;5053279;28;20075;-62
2023/03/23 05:18:23;;;;;;;18.92;16.98;;;11.20;99.90;;;;;;5052938;28;20616;-62
2023/03/23 05:20:52;;;;;;;22.65;20.45;;;11.20;99.90;;;;;;5052144;28;20497;-62
2023/03/23 05:23:20;;;;;;;20.48;18.40;;;11.00;99.90;;;;;;5052390;28;20036;-62
2023/03/23 05:25:55;;;;;;;22.50;20.25;;;10.90;99.90;;;;;;5052996;28;20532;-62
2023/03/23 05:28:21;;;;;;;27.05;22.73;;;11.00;99.90;;;;;;5052609;28;20033;-62
2023/03/23 05:30:48;;;;;;;39.97;35.65;;;11.00;99.90;;;;;;5052665;28;20032;-62
2023/03/23 05:33:14;;;;;;;19.15;17.27;;;11.00;99.90;;;;;;5052697;28;20025;-62
2023/03/23 05:35:40;;;;;;;15.07;13.63;;;11.00;99.90;;;;;;5052511;28;20366;-62
2023/03/23 05:38:05;;;;;;;17.05;15.23;;;11.00;99.90;;;;;;5050911;28;20455;-62
2023/03/23 05:40:31;;;;;;;26.40;23.60;;;11.00;99.90;;;;;;5052483;28;20013;-62
2023/03/23 05:42:58;;;;;;;26.00;23.48;;;10.90;99.90;;;;;;5052610;28;20079;-62
2023/03/23 05:45:26;;;;;;;22.30;20.02;;;10.70;99.90;;;;;;5052456;28;20066;-62
2023/03/23 05:47:52;;;;;;;21.13;17.20;;;10.50;99.90;;;;;;5052490;28;20104;-61
2023/03/23 05:50:18;;;;;;;16.15;14.63;;;10.50;99.90;;;;;;5052235;28;20036;-62
2023/03/23 05:52:44;;;;;;;14.25;12.93;;;10.50;99.90;;;;;;5052016;28;20490;-61
2023/03/23 05:55:11;;;;;;;17.38;15.60;;;10.50;99.90;;;;;;5052885;28;20047;-62
2023/03/23 05:57:37;;;;;;;13.10;11.90;;;10.40;99.90;;;;;;5052416;28;20047;-62
2023/03/23 06:00:11;;;;;;;13.07;11.57;;;10.40;99.90;;;;;;5052252;28;20552;-61
2023/03/23 06:02:37;;;;;;;12.70;10.57;;;10.40;99.90;;;;;;5052551;28;20033;-62
2023/03/23 06:05:04;;;;;;;18.17;11.90;;;10.40;99.90;;;;;;5051988;28;20048;-61
2023/03/23 06:07:30;;;;;;;14.00;11.18;;;10.40;99.90;;;;;;5051751;28;20040;-62
2023/03/23 06:09:55;;;;;;;11.50;10.40;;;10.40;99.90;;;;;;5052082;28;20028;-62
2023/03/23 06:12:21;;;;;;;11.20;9.80;;;10.50;99.90;;;;;;5050979;28;20370;-62
2023/03/23 06:14:48;;;;;;;10.30;8.95;;;10.30;99.90;;;;;;5052144;28;20489;-62
2023/03/23 06:17:16;;;;;;;10.23;9.25;;;10.40;99.90;;;;;;5052216;28;20154;-62
2023/03/23 06:19:41;;;;;;;10.00;9.00;;;10.40;99.90;;;;;;5051723;28;20064;-61
2023/03/23 06:22:07;;;;;;;11.60;9.85;;;10.40;99.90;;;;;;5051861;28;20428;-62
2023/03/23 06:24:34;;;;;;;12.40;10.20;;;10.60;99.90;;;;;;5051928;28;20090;-61
2023/03/23 06:26:59;;;;;;;11.45;9.25;;;10.60;99.90;;;;;;5052160;28;20017;-62
2023/03/23 06:29:25;;;;;;;10.35;9.20;;;10.80;99.90;;;;;;5052302;28;20112;-62
2023/03/23 06:32:00;;;;;;;7.32;6.63;;;11.10;99.90;;;;;;5051311;28;20075;-62
2023/03/23 06:34:26;;;;;;;7.47;6.45;;;13.30;99.90;;;;;;5055815;28;20104;-61
2023/03/23 06:36:52;;;;;;;7.45;6.72;;;13.00;99.90;;;;;;5055877;28;20100;-62
2023/03/23 06:39:18;;;;;;;7.45;6.57;;;12.10;99.90;;;;;;5055797;28;20517;-62
2023/03/23 06:41:43;;;;;;;9.07;7.15;;;11.80;99.90;;;;;;5056222;28;20029;-61
2023/03/23 06:44:12;;;;;;;8.30;7.40;;;11.80;99.90;;;;;;5055906;28;20037;-62
2023/03/23 06:46:39;;;;;;;9.00;8.07;;;12.30;99.90;;;;;;5055830;28;20028;-62
2023/03/23 06:49:05;;;;;;;11.63;9.10;;;12.80;99.90;;;;;;5055290;28;20025;-62
2023/03/23 06:51:31;;;;;;;12.25;8.73;;;14.00;99.90;;;;;;5055787;28;20021;-61
2023/03/23 06:53:57;;;;;;;15.13;10.32;;;16.20;99.90;;;;;;5055310;28;20032;-62
2023/03/23 06:56:23;;;;;;;14.82;11.00;;;20.40;99.90;;;;;;5055825;28;20388;-61
2023/03/23 06:58:49;;;;;;;14.43;11.40;;;21.00;99.90;;;;;;5055639;28;20013;-61
2023/03/23 07:01:15;;;;;;;10.85;9.82;;;19.50;99.90;;;;;;5055783;28;20052;-61
2023/03/23 07:03:42;;;;;;;12.32;8.77;;;19.50;99.90;;;;;;5053635;28;20044;-62
2023/03/23 07:06:09;;;;;;;11.25;7.72;;;19.60;99.90;;;;;;5054665;28;20029;-61
2023/03/23 07:08:35;;;;;;;7.72;6.47;;;21.40;99.90;;;;;;5054114;28;20039;-61
2023/03/23 07:11:01;;;;;;;11.52;7.30;;;22.90;99.90;;;;;;5054329;28;20025;-62
2023/03/23 07:13:27;;;;;;;8.35;6.70;;;23.30;99.90;;;;;;5055124;28;20578;-62
2023/03/23 07:15:53;;;;;;;7.70;6.90;;;22.40;99.90;;;;;;5055283;28;20112;-61
2023/03/23 07:18:19;;;;;;;7.82;6.68;;;21.30;99.90;;;;;;5054818;28;20076;-62
2023/03/23 07:20:52;;;;;;;7.18;6.57;;;20.60;99.90;;;;;;5054826;28;20086;-62
2023/03/23 07:23:19;;;;;;;6.70;6.10;;;19.80;99.90;;;;;;5055417;28;20497;-63
2023/03/23 07:25:46;;;;;;;10.68;7.20;;;19.20;99.90;;;;;;5054965;28;20622;-62
2023/03/23 07:28:12;;;;;;;7.25;6.55;;;19.00;99.90;;;;;;5054512;28;20021;-62
2023/03/23 07:30:38;;;;;;;12.10;6.90;;;18.40;99.90;;;;;;5055000;28;20518;-62
2023/03/23 07:33:06;;;;;;;9.48;6.97;;;17.70;99.90;;;;;;5054702;28;20028;-62
2023/03/23 07:35:32;;;;;;;10.25;7.35;;;17.30;99.90;;;;;;5054343;28;20371;-62
2023/03/23 07:37:59;;;;;;;9.00;6.82;;;17.10;99.90;;;;;;5054680;28;20100;-63
2023/03/23 07:40:26;;;;;;;7.75;6.20;;;16.90;99.90;;;;;;5055038;28;20032;-63
2023/03/23 07:42:55;;;;;;;7.00;6.25;;;17.00;99.90;;;;;;5054296;28;20101;-62
2023/03/23 07:45:20;;;;;;;8.00;7.20;;;17.50;99.90;;;;;;5053629;28;20033;-62
2023/03/23 07:47:46;;;;;;;8.85;6.75;;;16.90;99.90;;;;;;5053775;28;20028;-62
2023/03/23 07:50:12;;;;;;;7.40;6.22;;;16.50;99.90;;;;;;5054123;28;20036;-61
2023/03/23 07:52:39;;;;;;;7.75;6.25;;;16.80;99.90;;;;;;5053691;28;20017;-62
2023/03/23 07:55:06;;;;;;;10.20;6.78;;;16.30;99.90;;;;;;5054187;28;20032;-62
2023/03/23 07:57:33;;;;;;;10.20;7.00;;;16.60;99.90;;;;;;5054556;28;20524;-62
2023/03/23 08:00:00;;;;;;;8.13;6.13;;;16.40;99.90;;;;;;5054405;28;20442;-62
2023/03/23 08:02:26;;;;;;;8.38;6.18;;;16.90;99.90;;;;;;5053794;28;20501;-62
2023/03/23 08:04:53;;;;;;;10.10;6.90;;;16.60;99.90;;;;;;5054053;28;20797;-62
2023/03/23 08:07:19;;;;;;;13.52;7.30;;;16.90;99.90;;;;;;5054439;28;20539;-62
2023/03/23 08:09:46;;;;;;;7.43;6.50;;;17.20;99.90;;;;;;5054033;28;20036;-63
2023/03/23 08:12:12;;;;;;;9.80;7.22;;;17.00;99.90;;;;;;5054207;28;20090;-63
2023/03/23 08:14:39;;;;;;;9.18;7.72;;;16.80;99.90;;;;;;5053872;28;20028;-62
2023/03/23 08:17:05;;;;;;;11.77;7.90;;;17.00;99.90;;;;;;5053858;28;20025;-63
2023/03/23 08:19:36;;;;;;;9.00;7.38;;;17.00;99.90;;;;;;5053344;28;20103;-62
2023/03/23 08:22:05;;;;;;;6.97;6.28;;;16.50;99.90;;;;;;5052798;28;20436;-62
2023/03/23 08:24:32;;;;;;;7.15;6.15;;;16.80;99.90;;;;;;5053056;28;20041;-63
2023/03/23 08:26:59;;;;;;;9.55;6.60;;;16.70;99.90;;;;;;5053302;28;20025;-63
2023/03/23 08:29:25;;;;;;;8.20;6.38;;;16.80;99.90;;;;;;5053779;28;20496;-63
2023/03/23 08:31:51;;;;;;;9.02;6.63;;;16.60;99.90;;;;;;5052328;28;20508;-63
2023/03/23 08:34:16;;;;;;;7.78;6.63;;;16.70;99.90;;;;;;5053912;28;20108;-63
2023/03/23 08:36:44;;;;;;;7.28;6.57;;;17.00;99.90;;;;;;5053826;28;20040;-63
2023/03/23 08:39:10;;;;;;;9.30;6.45;;;17.80;99.90;;;;;;5053607;28;20051;-63
2023/03/23 08:41:36;;;;;;;6.30;5.68;;;17.80;99.90;;;;;;5053583;28;20017;-63
2023/03/23 08:44:01;;;;;;;7.32;5.70;;;18.30;99.90;;;;;;5053184;28;20421;-63
2023/03/23 08:46:27;;;;;;;6.25;5.50;;;18.10;99.90;;;;;;5052916;28;20032;-64
2023/03/23 08:48:54;;;;;;;6.90;6.00;;;18.10;99.90;;;;;;5053326;28;20033;-62
2023/03/23 08:51:19;;;;;;;5.88;5.38;;;17.80;99.90;;;;;;5053122;28;20390;-63
2023/03/23 08:53:45;;;;;;;5.72;5.18;;;17.70;99.90;;;;;;5053377;28;20036;-63
2023/03/23 08:56:14;;;;;;;6.35;5.60;;;17.80;99.90;;;;;;5051934;28;20021;-63
2023/03/23 08:58:40;;;;;;;6.25;5.65;;;17.70;99.90;;;;;;5053118;28;20032;-63
2023/03/23 09:01:07;;;;;;;7.88;5.68;;;17.30;99.90;;;;;;5052816;28;20021;-63
2023/03/23 09:03:34;;;;;;;6.72;6.10;;;17.20;99.90;;;;;;5052830;28;20028;-63
2023/03/23 09:06:01;;;;;;;6.65;5.88;;;17.70;99.90;;;;;;5052828;28;20104;-63
2023/03/23 09:08:28;;;;;;;8.93;6.28;;;17.50;99.90;;;;;;5053512;28;20025;-63
2023/03/23 09:10:58;;;;;;;9.93;6.10;;;17.40;99.90;;;;;;5053316;28;20024;-62
2023/03/23 09:13:24;;;;;;;10.65;6.30;;;17.60;99.90;;;;;;5052837;28;20452;-63
2023/03/23 09:15:51;;;;;;;7.22;6.45;;;17.40;99.90;;;;;;5052650;28;20029;-63
2023/03/23 09:18:17;;;;;;;15.27;7.10;;;17.40;99.90;;;;;;5052805;28;20481;-62
2023/03/23 09:20:43;;;;;;;7.78;6.97;;;17.30;99.90;;;;;;5053095;28;20032;-64
2023/03/23 09:23:09;;;;;;;9.88;7.50;;;17.60;99.90;;;;;;5052636;28;20525;-63
2023/03/23 09:25:36;;;;;;;12.93;7.65;;;18.50;99.90;;;;;;5052847;28;20096;-62
2023/03/23 09:28:02;;;;;;;15.73;7.78;;;19.30;99.90;;;;;;5052702;28;20025;-63
2023/03/23 09:30:30;;;;;;;13.63;7.50;;;20.10;99.90;;;;;;5052340;28;20033;-63
2023/03/23 09:32:57;;;;;;;15.05;10.48;;;19.70;99.90;;;;;;5052946;28;20025;-63
2023/03/23 09:35:24;;;;;;;16.52;11.48;;;20.30;99.90;;;;;;5052530;28;20055;-64
2023/03/23 09:37:51;;;;;;;13.20;10.10;;;20.20;99.90;;;;;;5052498;28;20043;-63
2023/03/23 09:40:23;;;;;;;11.27;7.60;;;20.30;99.90;;;;;;5052389;28;20127;-63
2023/03/23 09:43:11;;;;;;;9.50;6.65;;;19.80;99.90;;;;;;5052283;28;20028;-63
2023/03/23 09:46:24;;;;;;;14.45;7.43;;;19.60;99.90;;;;;;5052362;28;20486;-64
2023/03/23 09:49:05;;;;;;;15.52;8.63;;;19.40;99.90;;;;;;5052007;28;20440;-64
2023/03/23 09:51:42;;;;;;;14.02;8.63;;;19.20;99.90;;;;;;5052747;28;20039;-64
2023/03/23 09:54:28;;;;;;;11.25;7.50;;;18.80;99.90;;;;;;5052082;28;20561;-64
2023/03/23 09:56:56;;;;;;;11.80;7.40;;;19.40;99.90;;;;;;5052174;28;20040;-64
2023/03/23 09:59:29;;;;;;;9.75;7.32;;;20.70;99.90;;;;;;5052063;28;20063;-65
2023/03/23 10:02:08;;;;;;;8.13;6.30;;;22.10;99.90;;;;;;5051957;28;20021;-64
2023/03/23 10:04:44;;;;;;;10.23;6.57;;;21.10;99.90;;;;;;5052580;28;20127;-64
2023/03/23 10:07:38;;;;;;;6.53;5.40;;;20.60;99.90;;;;;;5051777;28;20443;-64
2023/03/23 10:10:08;;;;;;;5.65;3.92;;;19.80;99.90;;;;;;5047460;28;20455;-64
2023/03/23 10:12:41;;;;;;;5.00;3.67;;;20.10;99.90;;;;;;5051491;28;20056;-64
2023/03/23 10:15:20;;;;;;;4.15;3.47;;;19.40;99.90;;;;;;5051950;28;20025;-64
2023/03/23 10:18:10;;;;;;;5.70;3.50;;;19.60;99.90;;;;;;5052375;28;20040;-64
2023/03/23 10:20:46;;;;;;;6.18;3.40;;;20.00;99.90;;;;;;5052089;28;20039;-64
2023/03/23 10:23:17;;;;;;;5.47;3.05;;;21.30;99.90;;;;;;5052413;28;20033;-63
2023/03/23 10:25:52;;;;;;;3.40;3.10;;;20.90;99.90;;;;;;5052156;28;20534;-64
2023/03/23 10:28:19;;;;;;;4.10;2.85;;;20.70;99.90;;;;;;5051645;28;20025;-64
2023/03/23 10:30:59;;;;;;;3.15;2.70;;;20.60;99.90;;;;;;5052026;28;20075;-64
2023/03/23 10:33:40;;;;;;;4.28;3.10;;;20.50;99.90;;;;;;5052117;28;20025;-64
2023/03/23 10:36:21;;;;;;;3.67;2.60;;;20.80;99.90;;;;;;5051978;28;20078;-64
2023/03/23 10:39:14;;;;;;;3.78;2.80;;;21.20;99.90;;;;;;5050591;28;20079;-64
2023/03/23 10:41:40;;;;;;;3.55;2.80;;;22.00;99.90;;;;;;5051352;28;20033;-64
2023/03/23 10:44:13;;;;;;;2.83;2.30;;;22.80;99.90;;;;;;5051706;28;20025;-64
2023/03/23 10:46:48;;;;;;;4.28;2.10;;;22.50;99.90;;;;;;5051908;28;20025;-64
2023/03/23 10:49:21;;;;;;;4.13;1.70;;;21.90;99.90;;;;;;5051758;28;20068;-64
2023/03/23 10:52:09;;;;;;;2.40;1.50;;;21.70;99.90;;;;;;5052013;28;20025;-64
2023/03/23 10:54:46;;;;;;;4.22;2.60;;;22.50;99.90;;;;;;5052146;28;20264;-64
2023/03/23 10:57:24;;;;;;;3.00;1.67;;;21.50;99.90;;;;;;5051379;28;20017;-64
2023/03/23 10:59:51;;;;;;;2.40;1.75;;;21.20;99.90;;;;;;5051516;28;20469;-64
2023/03/23 11:02:19;;;;;;;3.40;1.70;;;22.00;99.90;;;;;;5051449;28;20060;-64
2023/03/23 11:04:58;;;;;;;2.03;1.60;;;22.60;99.90;;;;;;5051924;28;20041;-64
2023/03/23 11:07:32;;;;;;;1.50;1.40;;;22.40;99.90;;;;;;5051747;28;20097;-64
2023/03/23 11:10:15;;;;;;;4.00;1.60;;;22.80;99.90;;;;;;5051304;28;20247;-64
2023/03/23 11:12:45;;;;;;;2.22;1.30;;;22.90;99.90;;;;;;5050918;28;20204;-64
2023/03/23 11:15:28;;;;;;;2.45;1.38;;;23.20;99.90;;;;;;5051885;28;20397;-64
2023/03/23 11:18:00;;;;;;;2.53;1.38;;;23.80;99.90;;;;;;5051676;28;20024;-64
2023/03/23 11:20:29;;;;;;;1.30;1.20;;;23.90;99.90;;;;;;5054341;28;20112;-64
2023/03/23 11:22:55;;;;;;;1.63;1.45;;;24.50;99.90;;;;;;5055083;28;20040;-64
2023/03/23 11:25:22;;;;;;;1.70;1.25;;;23.40;99.90;;;;;;5054709;28;20033;-64
2023/03/23 11:27:49;;;;;;;2.67;1.33;;;23.20;99.90;;;;;;5055374;28;20040;-64
2023/03/23 11:30:27;;;;;;;2.13;1.70;;;22.80;99.90;;;;;;5055122;28;20031;-63
2023/03/23 11:32:54;;;;;;;1.63;1.52;;;22.20;99.90;;;;;;5055783;28;20112;-64
2023/03/23 11:35:27;;;;;;;1.30;1.20;;;22.20;99.90;;;;;;5055033;28;20028;-65
2023/03/23 11:37:58;;;;;;;2.20;1.17;;;22.50;99.90;;;;;;5054967;28;20031;-64
2023/03/23 11:40:29;;;;;;;2.45;1.40;;;23.30;99.90;;;;;;5054928;28;20025;-64
2023/03/23 11:43:18;;;;;;;1.60;1.50;;;23.40;99.90;;;;;;5055151;28;20025;-64
2023/03/23 11:46:29;;;;;;;2.40;2.15;;;24.00;99.90;;;;;;5054768;28;20045;-65
2023/03/23 11:49:02;;;;;;;2.25;1.90;;;22.70;99.90;;;;;;5054685;28;20039;-64
2023/03/23 11:51:44;;;;;;;2.08;1.80;;;22.90;99.90;;;;;;5054674;28;20029;-64
2023/03/23 11:54:36;;;;;;;2.17;1.80;;;22.40;99.90;;;;;;5054321;28;20043;-64
2023/03/23 11:57:11;;;;;;;2.30;1.80;;;22.70;99.90;;;;;;5054559;28;20039;-64
2023/03/23 11:59:38;;;;;;;2.22;2.00;;;22.80;99.90;;;;;;5054490;28;20043;-64
2023/03/23 12:02:32;;;;;;;1.98;1.75;;;22.50;99.90;;;;;;5054533;28;20616;-64
2023/03/23 12:05:53;;;;;;;2.20;2.00;;;22.60;99.90;;;;;;5054242;28;20409;-64
2023/03/23 12:08:37;;;;;;;3.22;1.98;;;22.90;99.90;;;;;;5031731;28;20108;-64
2023/03/23 12:11:20;;;;;;;3.75;1.80;;;23.50;99.90;;;;;;5015694;28;20025;-64
2023/03/23 12:13:55;;;;;;;3.33;2.10;;;23.30;99.90;;;;;;5032080;28;20056;-64
2023/03/23 12:16:44;;;;;;;3.05;1.95;;;22.20;99.90;;;;;;5032212;28;20564;-64
2023/03/23 12:19:22;;;;;;;2.35;1.80;;;22.80;99.90;;;;;;5032142;28;20099;-64
2023/03/23 12:22:18;;;;;;;2.47;1.90;;;22.70;99.90;;;;;;5032346;28;20625;-64
2023/03/23 12:25:12;;;;;;;3.10;1.92;;;23.40;99.90;;;;;;5031766;28;20572;-64
2023/03/23 12:28:32;;;;;;;2.33;1.88;;;22.80;99.90;;;;;;5031880;28;20442;-64
2023/03/23 12:31:12;;;;;;;2.25;1.80;;;23.10;99.90;;;;;;4972868;28;20042;-64
2023/03/23 12:34:02;;;;;;;2.65;1.80;;;23.30;99.90;;;;;;4972935;28;20635;-64
2023/03/23 12:36:37;;;;;;;2.08;1.65;;;23.70;99.90;;;;;;4972927;28;20040;-64
2023/03/23 12:39:28;;;;;;;2.30;1.90;;;23.40;99.90;;;;;;4972949;28;20035;-64
2023/03/23 12:42:03;;;;;;;2.15;1.92;;;23.40;99.90;;;;;;4973366;28;20089;-64
2023/03/23 12:44:48;;;;;;;4.00;2.33;;;22.60;99.90;;;;;;4977062;28;20058;-64
2023/03/23 12:47:47;;;;;;;2.58;2.15;;;23.00;99.90;;;;;;4992333;28;20034;-64
2023/03/23 12:50:31;;;;;;;2.47;1.80;;;23.40;99.90;;;;;;4991924;28;20058;-64
2023/03/23 12:53:06;;;;;;;3.60;2.05;;;23.60;99.90;;;;;;4991680;28;20542;-64
2023/03/23 12:55:44;;;;;;;3.05;2.35;;;23.80;99.90;;;;;;4992270;28;20027;-64
2023/03/23 12:58:19;;;;;;;2.10;1.90;;;24.40;99.90;;;;;;4991791;28;20049;-64
2023/03/23 13:00:56;;;;;;;5.35;2.05;;;24.10;99.90;;;;;;4991891;28;20038;-64
2023/03/23 13:03:32;;;;;;;2.20;2.00;;;24.40;99.90;;;;;;4991737;28;20109;-64
2023/03/23 13:06:36;;;;;;;2.03;1.83;;;24.40;99.90;;;;;;5053182;28;20523;-64